Time;durP1;ratioP1;P1;durP2;ratioP2;P2;SDS_P1;SDS_P2;PMS_P1;PMS_P2;Temp;Humidity;BMP_temperature;BMP_pressure;BME280_temperature;BME280_humidity;BME280_pressure;Samples;Min_cycle;Max_cycle;Signal;HPM_P1;HPM_P2
2022/10/05 00:00:44;;;;;;;13.23;8.13;;;16.60;99.90;;;;;;5007146;28;20201;-79
2022/10/05 00:03:11;;;;;;;10.98;7.55;;;16.50;99.90;;;;;;5023267;28;20305;-79
2022/10/05 00:05:38;;;;;;;11.73;8.15;;;16.50;99.90;;;;;;5017401;28;20218;-78
2022/10/05 00:08:22;;;;;;;13.38;7.65;;;16.50;99.90;;;;;;5017927;28;20210;-80
2022/10/05 00:10:50;;;;;;;10.52;8.05;;;16.50;99.90;;;;;;5015276;28;20614;-79
2022/10/05 00:13:23;;;;;;;11.93;7.83;;;16.50;99.90;;;;;;4999785;28;20611;-80
2022/10/05 00:16:11;;;;;;;10.47;7.17;;;16.50;99.90;;;;;;5030498;28;20329;-79
2022/10/05 00:18:38;;;;;;;13.05;7.50;;;16.50;99.90;;;;;;5019922;28;20624;-80
2022/10/05 00:21:20;;;;;;;11.00;7.63;;;16.50;99.90;;;;;;4999791;28;20256;-79
2022/10/05 00:23:48;;;;;;;11.67;7.53;;;16.50;99.90;;;;;;5007727;28;20245;-79
2022/10/05 00:26:22;;;;;;;14.23;7.90;;;16.40;99.90;;;;;;5001538;28;20236;-80
2022/10/05 00:28:50;;;;;;;11.50;7.10;;;16.40;99.90;;;;;;5026865;28;20221;-78
2022/10/05 00:31:21;;;;;;;10.52;7.03;;;16.50;99.90;;;;;;5018796;28;20326;-79
2022/10/05 00:33:48;;;;;;;13.75;7.57;;;16.50;99.90;;;;;;5038543;28;20688;-78
2022/10/05 00:36:16;;;;;;;11.77;7.30;;;16.50;99.90;;;;;;5035093;28;20213;-80
2022/10/05 00:38:43;;;;;;;11.25;7.80;;;16.50;99.90;;;;;;5041401;28;20213;-79
2022/10/05 00:41:19;;;;;;;11.10;7.68;;;16.50;99.90;;;;;;5038331;28;20238;-81
2022/10/05 00:44:12;;;;;;;11.73;7.65;;;16.40;99.90;;;;;;5021784;28;20573;-79
2022/10/05 00:47:26;;;;;;;11.07;7.77;;;16.40;99.90;;;;;;5036362;28;20231;-81
2022/10/05 00:50:14;;;;;;;13.75;6.75;;;16.40;99.90;;;;;;4995755;28;20609;-80
2022/10/05 00:53:00;;;;;;;15.85;8.77;;;16.40;99.90;;;;;;5038530;28;20240;-78
2022/10/05 00:55:55;;;;;;;10.43;7.27;;;16.40;99.90;;;;;;5019528;28;20245;-79
2022/10/05 00:58:31;;;;;;;9.53;7.13;;;16.40;99.90;;;;;;5038611;28;20217;-79
2022/10/05 01:01:08;;;;;;;13.13;7.47;;;16.40;99.90;;;;;;5039362;28;20323;-79
2022/10/05 01:03:46;;;;;;;10.68;7.00;;;16.40;99.90;;;;;;5033745;28;20296;-79
2022/10/05 01:06:27;;;;;;;11.97;7.20;;;16.40;99.90;;;;;;5040956;28;20319;-81
2022/10/05 01:09:01;;;;;;;11.18;7.68;;;16.40;99.90;;;;;;5036162;28;20948;-79
2022/10/05 01:11:38;;;;;;;10.43;7.43;;;16.40;99.90;;;;;;5018239;28;20214;-78
2022/10/05 01:14:38;;;;;;;11.52;7.70;;;16.40;99.90;;;;;;5039510;28;20292;-79
2022/10/05 01:17:32;;;;;;;10.38;6.95;;;16.40;99.90;;;;;;5019111;28;20225;-79
2022/10/05 01:20:26;;;;;;;11.10;7.03;;;16.40;99.90;;;;;;5036799;28;20608;-79
2022/10/05 01:23:19;;;;;;;9.17;6.67;;;16.40;99.90;;;;;;5036357;28;20637;-79
2022/10/05 01:26:11;;;;;;;9.70;7.50;;;16.40;99.90;;;;;;5009383;28;20228;-79
2022/10/05 01:29:14;;;;;;;10.63;6.50;;;16.30;99.90;;;;;;5033791;28;20201;-82
2022/10/05 01:31:51;;;;;;;12.00;7.20;;;16.40;99.90;;;;;;5024239;28;20807;-80
2022/10/05 01:34:46;;;;;;;10.50;7.03;;;16.30;99.90;;;;;;5041296;28;20636;-79
2022/10/05 01:37:56;;;;;;;13.50;7.43;;;16.30;99.90;;;;;;5037271;28;20216;-79
2022/10/05 01:40:32;;;;;;;10.90;7.17;;;16.30;99.90;;;;;;5019267;28;20241;-80
2022/10/05 01:43:23;;;;;;;11.70;6.70;;;16.30;99.90;;;;;;5035759;28;20208;-79
2022/10/05 01:45:59;;;;;;;9.20;6.90;;;16.30;99.90;;;;;;5021103;28;20233;-79
2022/10/05 01:48:41;;;;;;;10.68;7.30;;;16.30;99.90;;;;;;5038218;28;20200;-79
2022/10/05 01:51:53;;;;;;;12.47;7.90;;;16.30;99.90;;;;;;5023458;28;20522;-80
2022/10/05 01:54:54;;;;;;;13.65;7.63;;;16.30;99.90;;;;;;4963354;28;20217;-81
2022/10/05 01:57:36;;;;;;;13.85;7.70;;;16.30;99.90;;;;;;5034638;28;20210;-78
2022/10/05 02:00:10;;;;;;;11.77;8.33;;;16.20;99.90;;;;;;5038863;28;20269;-79
2022/10/05 02:02:47;;;;;;;11.03;7.53;;;16.20;99.90;;;;;;5038115;28;20336;-80
2022/10/05 02:05:26;;;;;;;12.30;8.17;;;16.20;99.90;;;;;;5017905;28;20206;-79
2022/10/05 02:08:24;;;;;;;12.60;8.20;;;16.20;99.90;;;;;;5034882;28;20240;-78
2022/10/05 02:10:59;;;;;;;13.20;8.10;;;16.20;99.90;;;;;;5035559;28;20272;-80
2022/10/05 02:13:34;;;;;;;12.50;7.97;;;16.10;99.90;;;;;;5038378;28;20216;-80
2022/10/05 02:16:09;;;;;;;10.53;7.60;;;16.10;99.90;;;;;;5036920;28;20298;-79
2022/10/05 02:19:03;;;;;;;11.23;7.60;;;16.00;99.90;;;;;;5037823;28;20259;-80
2022/10/05 02:21:33;;;;;;;10.70;7.87;;;16.00;99.90;;;;;;5032003;28;20320;-79
2022/10/05 02:24:05;;;;;;;11.70;8.27;;;16.00;99.90;;;;;;5016358;28;20218;-80
2022/10/05 02:26:35;;;;;;;14.77;8.67;;;15.90;99.90;;;;;;5041429;28;20717;-78
2022/10/05 02:29:07;;;;;;;12.13;9.20;;;15.90;99.90;;;;;;5025972;28;20291;-80
2022/10/05 02:31:59;;;;;;;15.23;9.07;;;15.90;99.90;;;;;;5043851;28;20654;-81
2022/10/05 02:34:32;;;;;;;13.63;9.50;;;15.90;99.90;;;;;;5036674;28;20296;-82
2022/10/05 02:37:31;;;;;;;13.50;8.70;;;15.80;99.90;;;;;;5016769;28;20225;-80
2022/10/05 02:40:25;;;;;;;15.43;9.27;;;15.80;99.90;;;;;;5041673;28;20233;-81
2022/10/05 02:42:59;;;;;;;14.27;9.53;;;15.80;99.90;;;;;;5020125;28;20216;-81
2022/10/05 02:45:48;;;;;;;13.53;8.83;;;15.80;99.90;;;;;;5035216;28;20214;-80
2022/10/05 02:48:34;;;;;;;14.23;9.10;;;15.80;99.90;;;;;;5020447;28;20272;-80
2022/10/05 02:51:07;;;;;;;16.60;9.30;;;15.90;99.90;;;;;;5044087;28;20259;-80
2022/10/05 02:53:49;;;;;;;12.23;8.80;;;15.80;99.90;;;;;;5031762;28;20288;-80
2022/10/05 02:56:37;;;;;;;16.37;9.37;;;15.70;99.90;;;;;;5028992;28;20292;-79
2022/10/05 02:59:14;;;;;;;17.50;8.97;;;15.80;99.90;;;;;;5037441;28;20203;-81
2022/10/05 03:02:16;;;;;;;16.20;9.33;;;15.70;99.90;;;;;;5021065;28;20228;-81
2022/10/05 03:05:17;;;;;;;11.63;8.40;;;15.70;99.90;;;;;;5041037;28;20219;-79
2022/10/05 03:08:18;;;;;;;17.20;9.43;;;15.60;99.90;;;;;;5026144;28;20287;-79
2022/10/05 03:11:15;;;;;;;12.40;9.17;;;15.60;99.90;;;;;;5035828;28;20217;-80
2022/10/05 03:13:50;;;;;;;13.40;9.13;;;15.60;99.90;;;;;;5032709;28;20518;-79
2022/10/05 03:16:42;;;;;;;12.93;8.90;;;15.50;99.90;;;;;;5037809;28;20205;-80
2022/10/05 03:19:49;;;;;;;14.50;9.27;;;15.50;99.90;;;;;;5024895;28;20271;-81
2022/10/05 03:22:49;;;;;;;13.47;8.97;;;15.50;99.90;;;;;;5025137;28;20653;-81
2022/10/05 03:25:41;;;;;;;16.23;9.40;;;15.40;99.90;;;;;;5018879;28;20283;-80
2022/10/05 03:28:43;;;;;;;14.27;9.63;;;15.40;99.90;;;;;;5041375;28;20336;-80
2022/10/05 03:31:34;;;;;;;16.30;10.03;;;15.40;99.90;;;;;;5034073;28;20225;-79
2022/10/05 03:34:26;;;;;;;17.77;10.37;;;15.40;99.90;;;;;;5035582;28;20655;-79
2022/10/05 03:36:59;;;;;;;17.73;10.00;;;15.40;99.90;;;;;;5028552;28;20214;-82
2022/10/05 03:39:38;;;;;;;17.57;9.57;;;15.40;99.90;;;;;;5037738;28;20234;-80
2022/10/05 03:42:43;;;;;;;15.40;10.10;;;15.40;99.90;;;;;;5042818;28;20232;-79
2022/10/05 03:45:38;;;;;;;15.07;10.20;;;15.40;99.90;;;;;;5036781;28;20655;-80
2022/10/05 03:48:13;;;;;;;18.07;10.00;;;15.50;99.90;;;;;;5042136;28;20320;-80
2022/10/05 03:50:58;;;;;;;17.73;9.83;;;15.50;99.90;;;;;;5021454;28;20232;-80
2022/10/05 03:53:31;;;;;;;19.07;10.70;;;15.50;99.90;;;;;;5037356;28;20205;-81
2022/10/05 03:56:05;;;;;;;15.90;10.00;;;15.50;99.90;;;;;;5028251;28;20232;-79
2022/10/05 03:58:59;;;;;;;12.57;9.17;;;15.60;99.90;;;;;;5037832;28;20208;-80
2022/10/05 04:01:38;;;;;;;15.83;10.37;;;15.60;99.90;;;;;;5024824;28;20226;-81
2022/10/05 04:04:10;;;;;;;16.00;10.33;;;15.60;99.90;;;;;;5019156;28;20212;-80
2022/10/05 04:06:44;;;;;;;16.80;10.23;;;15.60;99.90;;;;;;5039117;28;20264;-80
2022/10/05 04:09:17;;;;;;;16.47;10.20;;;15.60;99.90;;;;;;5028798;28;20269;-80
2022/10/05 04:12:07;;;;;;;19.10;9.97;;;15.60;99.90;;;;;;5038361;28;20636;-81
2022/10/05 04:14:42;;;;;;;18.83;10.77;;;15.60;99.90;;;;;;5037553;28;20210;-80
2022/10/05 04:17:32;;;;;;;16.83;10.03;;;15.70;99.90;;;;;;5021801;28;20756;-80
2022/10/05 04:20:05;;;;;;;14.93;9.60;;;15.60;99.90;;;;;;5038188;28;20237;-79
2022/10/05 04:22:44;;;;;;;17.87;10.37;;;15.60;99.90;;;;;;5037698;28;20715;-80
2022/10/05 04:25:25;;;;;;;16.40;10.73;;;15.60;99.90;;;;;;5040852;28;20658;-79
2022/10/05 04:28:25;;;;;;;16.17;10.70;;;15.60;99.90;;;;;;5040822;28;20690;-79
2022/10/05 04:31:02;;;;;;;15.63;9.73;;;15.60;99.90;;;;;;5010548;28;20570;-78
2022/10/05 04:33:30;;;;;;;14.47;9.87;;;15.60;99.90;;;;;;5026257;28;20213;-78
2022/10/05 04:36:19;;;;;;;17.83;10.60;;;15.60;99.90;;;;;;5041052;28;20271;-79
2022/10/05 04:39:00;;;;;;;12.70;9.50;;;15.70;99.90;;;;;;5036675;28;20394;-79
2022/10/05 04:41:55;;;;;;;14.30;9.50;;;15.70;99.90;;;;;;5039291;28;20251;-78
2022/10/05 04:44:37;;;;;;;19.03;10.37;;;15.70;99.90;;;;;;5023592;28;20225;-79
2022/10/05 04:47:21;;;;;;;14.87;10.07;;;15.70;99.90;;;;;;5026435;28;20328;-80
2022/10/05 04:50:21;;;;;;;14.70;10.00;;;15.70;99.90;;;;;;5026687;28;20189;-78
2022/10/05 04:53:12;;;;;;;15.70;10.13;;;15.70;99.90;;;;;;5037667;28;20291;-80
2022/10/05 04:55:57;;;;;;;15.50;9.93;;;15.70;99.90;;;;;;5039217;28;20205;-78
2022/10/05 04:59:01;;;;;;;14.27;10.10;;;15.70;99.90;;;;;;5040283;28;20208;-79
2022/10/05 05:01:51;;;;;;;16.83;10.33;;;15.70;99.90;;;;;;5040592;28;20336;-80
2022/10/05 05:04:42;;;;;;;15.13;10.27;;;15.70;99.90;;;;;;5040457;28;20733;-79
2022/10/05 05:07:30;;;;;;;13.90;9.53;;;15.70;99.90;;;;;;5036267;28;20321;-79
2022/10/05 05:10:33;;;;;;;12.03;9.73;;;15.90;99.90;;;;;;5019524;28;20194;-77
2022/10/05 05:13:08;;;;;;;14.40;9.23;;;15.70;99.90;;;;;;5038295;28;20224;-78
2022/10/05 05:15:49;;;;;;;11.93;8.83;;;15.70;99.90;;;;;;5035211;28;20209;-78
2022/10/05 05:18:50;;;;;;;9.30;7.70;;;15.70;99.90;;;;;;5038538;28;20213;-79
2022/10/05 05:21:33;;;;;;;10.83;8.30;;;15.70;99.90;;;;;;5034812;28;20212;-80
2022/10/05 05:24:19;;;;;;;13.00;8.20;;;15.70;99.90;;;;;;5041226;28;20245;-79
2022/10/05 05:27:16;;;;;;;11.80;7.83;;;15.80;99.90;;;;;;5036379;28;20234;-81
2022/10/05 05:29:47;;;;;;;12.73;8.70;;;15.80;99.90;;;;;;5039381;28;20291;-79
2022/10/05 05:32:25;;;;;;;11.30;8.77;;;15.80;99.90;;;;;;5036489;28;20245;-82
2022/10/05 05:35:17;;;;;;;14.87;8.93;;;15.80;99.90;;;;;;5040962;28;20828;-79
2022/10/05 05:38:06;;;;;;;12.23;9.00;;;15.80;99.90;;;;;;5037800;28;20228;-79
2022/10/05 05:40:43;;;;;;;17.40;9.33;;;15.70;99.90;;;;;;5035445;28;20943;-78
2022/10/05 05:43:35;;;;;;;15.67;8.83;;;15.70;99.90;;;;;;5027931;28;20267;-79
2022/10/05 05:46:16;;;;;;;14.93;8.93;;;15.80;99.90;;;;;;5039832;28;20248;-80
2022/10/05 05:48:46;;;;;;;12.60;8.70;;;15.70;99.90;;;;;;5046831;28;20317;-78
2022/10/05 05:51:37;;;;;;;13.07;8.73;;;15.80;99.90;;;;;;5029410;28;20209;-79
2022/10/05 05:54:43;;;;;;;13.63;9.17;;;15.80;99.90;;;;;;5042799;28;20212;-78
2022/10/05 05:57:13;;;;;;;12.40;9.07;;;15.70;99.90;;;;;;5025592;28;20214;-79
2022/10/05 06:00:06;;;;;;;16.57;8.97;;;15.70;99.90;;;;;;5037554;28;20197;-79
2022/10/05 06:02:51;;;;;;;15.03;9.97;;;15.70;99.90;;;;;;5046422;28;20225;-78
2022/10/05 06:05:33;;;;;;;16.13;8.80;;;15.70;99.90;;;;;;5044285;28;20634;-78
2022/10/05 06:08:26;;;;;;;20.43;9.77;;;15.70;99.90;;;;;;5039815;28;20229;-78
2022/10/05 06:11:02;;;;;;;14.50;8.47;;;15.70;99.90;;;;;;5022681;28;20260;-80
2022/10/05 06:13:36;;;;;;;17.27;8.63;;;15.70;99.90;;;;;;5018708;28;20276;-80
2022/10/05 06:16:35;;;;;;;13.20;8.80;;;15.70;99.90;;;;;;5037845;28;20244;-80
2022/10/05 06:19:13;;;;;;;14.60;9.07;;;15.70;99.90;;;;;;5042844;28;20208;-79
2022/10/05 06:21:52;;;;;;;14.43;8.57;;;15.70;99.90;;;;;;5027881;28;21046;-80
2022/10/05 06:24:53;;;;;;;11.63;8.00;;;15.70;99.90;;;;;;5025562;28;20664;-80
2022/10/05 06:28:09;;;;;;;12.63;8.90;;;15.80;99.90;;;;;;5035410;28;20263;-79
2022/10/05 06:31:23;;;;;;;14.90;8.80;;;15.80;99.90;;;;;;5034280;28;20316;-77
2022/10/05 06:33:53;;;;;;;13.90;8.97;;;15.80;99.90;;;;;;4997346;28;20221;-78
2022/10/05 06:36:47;;;;;;;12.40;8.40;;;15.70;99.90;;;;;;5034763;28;20209;-77
2022/10/05 06:39:27;;;;;;;15.60;9.17;;;15.70;99.90;;;;;;5028626;28;20209;-78
2022/10/05 06:41:58;;;;;;;11.83;8.90;;;15.70;99.90;;;;;;5016477;28;20217;-79
2022/10/05 06:44:36;;;;;;;13.63;9.13;;;15.70;99.90;;;;;;5041234;28;20355;-78
2022/10/05 06:47:21;;;;;;;12.27;8.80;;;15.80;99.90;;;;;;5039564;28;20256;-79
2022/10/05 06:50:27;;;;;;;11.27;8.77;;;15.80;99.90;;;;;;5041388;28;20622;-78
2022/10/05 06:53:35;;;;;;;11.90;7.53;;;15.90;99.90;;;;;;5029568;28;20220;-78
2022/10/05 06:56:09;;;;;;;12.60;8.60;;;15.80;99.90;;;;;;4980060;28;20210;-78
2022/10/05 06:58:46;;;;;;;14.90;9.80;;;15.80;99.90;;;;;;5044977;28;20206;-77
2022/10/05 07:01:33;;;;;;;11.13;7.87;;;15.80;99.90;;;;;;5032015;28;20248;-78
2022/10/05 07:04:25;;;;;;;9.87;7.23;;;15.80;99.90;;;;;;5029521;28;20211;-77
2022/10/05 07:07:15;;;;;;;13.53;8.40;;;15.90;99.90;;;;;;5043486;28;20658;-81
2022/10/05 07:09:58;;;;;;;9.70;6.90;;;15.90;99.90;;;;;;5042217;28;20229;-78
2022/10/05 07:12:49;;;;;;;11.43;7.50;;;16.00;99.90;;;;;;5024894;28;20209;-76
2022/10/05 07:16:07;;;;;;;10.63;7.03;;;16.00;99.90;;;;;;5026780;28;20291;-77
2022/10/05 07:18:52;;;;;;;9.50;6.73;;;16.00;99.90;;;;;;4987105;28;20627;-78
2022/10/05 07:21:38;;;;;;;10.93;7.77;;;16.10;99.90;;;;;;5039782;28;20210;-78
2022/10/05 07:24:30;;;;;;;9.90;7.00;;;16.00;99.90;;;;;;5042472;28;20595;-79
2022/10/05 07:27:13;;;;;;;9.57;6.70;;;16.00;99.90;;;;;;5036610;28;20205;-77
2022/10/05 07:29:43;;;;;;;9.40;7.17;;;16.00;99.90;;;;;;5024360;28;20228;-78
2022/10/05 07:32:51;;;;;;;8.90;6.60;;;16.10;99.90;;;;;;5040263;28;20704;-76
2022/10/05 07:38:46;;;;;;;8.27;5.77;;;16.10;99.90;;;;;;5032625;28;20202;-77
2022/10/05 07:41:22;;;;;;;5.70;5.03;;;16.20;99.90;;;;;;5045414;28;20578;-78
2022/10/05 07:44:17;;;;;;;7.77;5.57;;;16.20;99.90;;;;;;5038491;28;20361;-77
2022/10/05 07:46:59;;;;;;;7.30;4.90;;;16.30;99.90;;;;;;5039476;28;20249;-78
2022/10/05 07:49:46;;;;;;;7.73;4.77;;;16.30;99.90;;;;;;5041787;28;20211;-78
2022/10/05 07:52:31;;;;;;;6.63;5.20;;;16.30;99.90;;;;;;5022055;28;20204;-79
2022/10/05 07:55:22;;;;;;;8.85;4.72;;;16.40;99.90;;;;;;5017696;28;21619;-77
2022/10/05 07:58:00;;;;;;;8.82;4.90;;;16.50;99.90;;;;;;5039820;28;20948;-78
2022/10/05 08:00:50;;;;;;;5.85;4.45;;;16.50;99.90;;;;;;5020357;28;20729;-77
2022/10/05 08:03:38;;;;;;;5.65;4.55;;;16.60;99.90;;;;;;5036497;28;20600;-78
2022/10/05 08:06:09;;;;;;;5.68;4.10;;;16.60;99.90;;;;;;5037110;28;20232;-77
2022/10/05 08:08:51;;;;;;;5.40;4.35;;;16.60;99.90;;;;;;5037092;28;20312;-78
2022/10/05 08:11:24;;;;;;;7.95;4.90;;;16.70;99.90;;;;;;5031906;28;20244;-78
2022/10/05 08:14:19;;;;;;;8.40;4.57;;;16.70;99.90;;;;;;5040001;28;20209;-77
2022/10/05 08:16:47;;;;;;;7.05;4.75;;;16.70;99.90;;;;;;5021720;28;20229;-77
2022/10/05 08:19:14;;;;;;;7.00;4.43;;;16.70;99.90;;;;;;5033578;28;20293;-77
2022/10/05 08:21:54;;;;;;;6.80;4.82;;;16.70;99.90;;;;;;5019513;28;20210;-78
2022/10/05 08:25:09;;;;;;;6.25;4.78;;;16.70;99.90;;;;;;5038289;28;20293;-79
2022/10/05 08:27:58;;;;;;;6.90;3.95;;;16.80;99.90;;;;;;4965802;28;20728;-76
2022/10/05 08:30:29;;;;;;;6.88;4.85;;;16.80;99.90;;;;;;4965825;28;20643;-78
2022/10/05 08:33:08;;;;;;;7.10;4.50;;;16.80;99.90;;;;;;5010395;28;20229;-78
2022/10/05 08:35:42;;;;;;;5.65;4.82;;;16.90;99.90;;;;;;5033730;28;20205;-77
2022/10/05 08:38:15;;;;;;;8.65;4.72;;;16.90;99.90;;;;;;5017358;28;20678;-78
2022/10/05 08:40:59;;;;;;;8.93;4.82;;;17.00;99.90;;;;;;5015867;28;20241;-78
2022/10/05 08:43:44;;;;;;;5.57;4.40;;;16.90;99.90;;;;;;5037390;28;20200;-77
2022/10/05 08:46:16;;;;;;;7.72;4.85;;;16.90;99.90;;;;;;5036077;28;20773;-78
2022/10/05 08:49:15;;;;;;;6.25;4.82;;;17.00;99.90;;;;;;5036706;28;20226;-77
2022/10/05 08:51:56;;;;;;;5.82;4.72;;;17.00;99.90;;;;;;5033776;28;20245;-78
2022/10/05 08:54:41;;;;;;;7.10;5.00;;;17.00;99.90;;;;;;5040682;28;20220;-77
2022/10/05 08:57:37;;;;;;;6.60;5.35;;;17.00;99.90;;;;;;5035855;28;20204;-76
2022/10/05 09:00:16;;;;;;;6.57;4.10;;;17.00;99.90;;;;;;5031162;28;20263;-77
2022/10/05 09:03:08;;;;;;;6.22;4.30;;;17.10;99.90;;;;;;5032862;28;20850;-76
2022/10/05 09:06:03;;;;;;;7.07;4.72;;;17.10;99.90;;;;;;5034868;28;20260;-77
2022/10/05 09:08:45;;;;;;;6.70;4.38;;;17.10;99.90;;;;;;5033801;28;20326;-80
2022/10/05 09:11:34;;;;;;;5.05;4.55;;;17.10;99.90;;;;;;5032728;28;20213;-76
2022/10/05 09:14:19;;;;;;;6.25;4.63;;;17.10;99.90;;;;;;5020661;28;20271;-77
2022/10/05 09:17:01;;;;;;;4.82;4.35;;;17.20;99.90;;;;;;5037398;28;20213;-77
2022/10/05 09:20:15;;;;;;;5.68;4.85;;;17.20;99.90;;;;;;5026460;28;20697;-77
2022/10/05 09:23:34;;;;;;;4.68;4.18;;;17.30;99.90;;;;;;5041423;28;20237;-79
2022/10/05 09:26:38;;;;;;;6.80;3.80;;;17.30;99.90;;;;;;5003025;28;20217;-78
2022/10/05 09:29:29;;;;;;;4.25;3.83;;;17.30;99.90;;;;;;5024390;28;20808;-77
2022/10/05 09:32:17;;;;;;;4.25;3.40;;;17.40;99.90;;;;;;5036851;28;20725;-77
2022/10/05 09:34:58;;;;;;;6.93;3.83;;;17.50;99.90;;;;;;5042253;28;20220;-78
2022/10/05 09:38:08;;;;;;;4.07;3.10;;;17.50;99.90;;;;;;5026492;28;20294;-76
2022/10/05 09:41:12;;;;;;;5.47;3.40;;;17.60;99.90;;;;;;5032972;28;20213;-77
2022/10/05 09:44:10;;;;;;;3.40;3.00;;;17.60;99.90;;;;;;5033294;28;20211;-79
2022/10/05 09:47:03;;;;;;;7.50;3.78;;;17.60;99.90;;;;;;5038065;28;20309;-79
2022/10/05 09:49:51;;;;;;;5.82;3.90;;;17.70;99.90;;;;;;5029169;28;20233;-78
2022/10/05 09:53:00;;;;;;;6.78;3.92;;;17.70;99.90;;;;;;5032641;28;20232;-80
2022/10/05 09:55:52;;;;;;;4.80;3.97;;;17.80;99.90;;;;;;4974277;28;20207;-77
2022/10/05 09:58:43;;;;;;;8.65;4.43;;;17.80;99.90;;;;;;5037418;28;20198;-76
2022/10/05 10:01:28;;;;;;;5.35;3.72;;;17.90;99.90;;;;;;5032434;28;20344;-76
2022/10/05 10:04:24;;;;;;;4.75;3.95;;;17.90;99.90;;;;;;5035666;28;20213;-78
2022/10/05 10:07:16;;;;;;;5.25;3.53;;;18.00;99.90;;;;;;5032040;28;20557;-76
2022/10/05 10:10:04;;;;;;;5.03;3.58;;;18.10;99.90;;;;;;5034851;28;20317;-76
2022/10/05 10:12:40;;;;;;;5.82;3.83;;;18.30;99.90;;;;;;5019364;28;20213;-76
2022/10/05 10:15:56;;;;;;;6.65;4.22;;;18.30;99.90;;;;;;5031338;28;20204;-77
2022/10/05 10:18:51;;;;;;;6.93;3.85;;;18.40;99.90;;;;;;5034398;28;20212;-77
2022/10/05 10:21:59;;;;;;;7.85;4.13;;;18.40;99.90;;;;;;5020717;28;20197;-78
2022/10/05 10:24:41;;;;;;;7.57;4.30;;;18.50;99.90;;;;;;5036752;28;20340;-77
2022/10/05 10:27:42;;;;;;;5.85;3.92;;;18.60;99.90;;;;;;5015500;28;20271;-77
2022/10/05 10:30:17;;;;;;;5.70;4.18;;;18.60;99.90;;;;;;5014498;28;20299;-77
2022/10/05 10:33:14;;;;;;;6.68;4.25;;;18.60;99.90;;;;;;5038396;28;20247;-76
2022/10/05 10:35:47;;;;;;;7.40;4.18;;;18.70;99.90;;;;;;5038573;28;20280;-76
2022/10/05 10:38:41;;;;;;;9.10;3.75;;;18.80;99.90;;;;;;5043269;28;20661;-75
2022/10/05 10:41:48;;;;;;;8.00;3.83;;;18.90;99.90;;;;;;5024864;28;20197;-77
2022/10/05 10:44:40;;;;;;;5.15;4.15;;;18.90;99.90;;;;;;5037583;28;20642;-77
2022/10/05 10:47:53;;;;;;;6.88;4.72;;;18.90;99.90;;;;;;5036724;28;20214;-77
2022/10/05 10:50:27;;;;;;;7.10;3.97;;;18.90;99.90;;;;;;4966636;28;20332;-77
2022/10/05 10:53:18;;;;;;;4.60;3.10;;;19.00;99.90;;;;;;5034045;28;20198;-77
2022/10/05 10:56:33;;;;;;;4.47;3.30;;;19.10;99.90;;;;;;5021047;28;20200;-80
2022/10/05 10:59:42;;;;;;;7.20;3.40;;;19.20;99.90;;;;;;4953240;28;20202;-77
2022/10/05 11:02:38;;;;;;;6.07;3.33;;;19.10;99.90;;;;;;5017557;28;20217;-79
2022/10/05 11:05:40;;;;;;;6.78;3.63;;;19.20;99.90;;;;;;5034353;28;20224;-79
2022/10/05 11:08:33;;;;;;;6.20;3.20;;;19.20;99.90;;;;;;5033782;28;20261;-78
2022/10/05 11:11:28;;;;;;;6.38;3.35;;;19.30;99.90;;;;;;5032325;28;20282;-78
2022/10/05 11:14:10;;;;;;;6.43;3.70;;;19.30;99.90;;;;;;5018463;28;20285;-78
2022/10/05 11:17:14;;;;;;;6.00;3.53;;;19.40;99.90;;;;;;5030796;28;20225;-78
2022/10/05 11:20:20;;;;;;;4.47;3.40;;;19.40;99.90;;;;;;5020034;28;20626;-78
2022/10/05 11:23:15;;;;;;;7.97;4.53;;;19.30;99.90;;;;;;5043234;28;20231;-79
2022/10/05 11:25:48;;;;;;;3.50;2.60;;;19.20;99.90;;;;;;5037505;28;20611;-78
2022/10/05 11:28:36;;;;;;;6.07;3.38;;;19.20;99.90;;;;;;5036992;28;20221;-79
2022/10/05 11:31:09;;;;;;;5.30;3.25;;;19.30;99.90;;;;;;5014808;28;20222;-78
2022/10/05 11:33:54;;;;;;;3.20;2.88;;;19.40;99.90;;;;;;5018886;28;20296;-78
2022/10/05 11:36:53;;;;;;;5.28;3.75;;;19.50;99.90;;;;;;5032269;28;20789;-80
2022/10/05 11:39:35;;;;;;;4.72;3.10;;;19.50;99.90;;;;;;5036738;28;20682;-81
2022/10/05 11:42:02;;;;;;;7.18;3.63;;;19.40;99.90;;;;;;5023226;28;20259;-79
2022/10/05 11:44:54;;;;;;;4.47;3.00;;;19.50;99.90;;;;;;5018114;28;20699;-78
2022/10/05 11:47:28;;;;;;;4.57;2.90;;;19.40;99.90;;;;;;5032834;28;20218;-79
2022/10/05 11:50:23;;;;;;;5.45;2.83;;;19.40;99.90;;;;;;5031242;28;20649;-78
2022/10/05 11:53:00;;;;;;;4.10;3.40;;;19.50;99.90;;;;;;5026257;28;20372;-79
2022/10/05 11:55:31;;;;;;;4.38;2.65;;;19.50;99.90;;;;;;5039359;28;20251;-81
2022/10/05 11:58:06;;;;;;;5.00;2.88;;;19.50;99.90;;;;;;5036470;28;20285;-78
2022/10/05 12:00:41;;;;;;;5.00;2.78;;;19.50;99.90;;;;;;5023722;28;20224;-80
2022/10/05 12:03:17;;;;;;;5.80;2.95;;;19.40;99.90;;;;;;5018210;28;20688;-78
2022/10/05 12:06:10;;;;;;;4.00;3.00;;;19.50;99.90;;;;;;5041640;28;20277;-81
2022/10/05 12:08:56;;;;;;;5.70;3.28;;;19.50;99.90;;;;;;5023651;28;20319;-77
2022/10/05 12:11:35;;;;;;;4.10;3.03;;;19.50;99.90;;;;;;5023861;28;20216;-79
2022/10/05 12:14:11;;;;;;;3.47;2.67;;;19.60;99.90;;;;;;5039627;28;20213;-79
2022/10/05 12:16:58;;;;;;;6.72;3.38;;;19.50;99.90;;;;;;5042545;28;20217;-79
2022/10/05 12:19:55;;;;;;;5.25;3.60;;;19.50;99.90;;;;;;5040846;28;20306;-80
2022/10/05 12:22:40;;;;;;;4.47;2.80;;;19.60;99.90;;;;;;5034281;28;20706;-79
2022/10/05 12:25:44;;;;;;;8.77;3.28;;;19.70;99.90;;;;;;5039239;28;20298;-77
2022/10/05 12:28:18;;;;;;;6.18;3.22;;;19.80;99.90;;;;;;5026698;28;20212;-77
2022/10/05 12:30:59;;;;;;;8.93;3.33;;;19.80;99.90;;;;;;5022300;28;20205;-78
2022/10/05 12:33:46;;;;;;;5.93;3.38;;;19.80;99.90;;;;;;5034445;28;20205;-78
2022/10/05 12:36:19;;;;;;;8.13;3.35;;;19.80;99.90;;;;;;5025870;28;20209;-78
2022/10/05 12:39:02;;;;;;;5.18;3.03;;;19.90;99.90;;;;;;5044153;28;20210;-78
2022/10/05 12:42:09;;;;;;;4.88;3.42;;;19.90;99.90;;;;;;5023697;28;20282;-79
2022/10/05 12:45:21;;;;;;;6.88;3.35;;;20.00;99.90;;;;;;5038063;28;20209;-78
2022/10/05 12:48:03;;;;;;;7.05;3.50;;;20.00;99.90;;;;;;5012570;28;20232;-81
2022/10/05 12:50:36;;;;;;;5.57;2.90;;;20.00;99.90;;;;;;5038766;28;20303;-79
2022/10/05 12:53:19;;;;;;;5.63;3.38;;;20.00;99.90;;;;;;5037513;28;20237;-78
2022/10/05 12:56:11;;;;;;;6.07;3.15;;;20.10;99.90;;;;;;5035390;28;20260;-77
2022/10/05 12:58:38;;;;;;;4.18;2.95;;;20.20;99.90;;;;;;5035889;28;20227;-78
2022/10/05 13:01:27;;;;;;;4.03;3.10;;;20.30;99.90;;;;;;5022109;28;20360;-77
2022/10/05 13:04:22;;;;;;;3.00;2.72;;;20.40;99.90;;;;;;5016225;28;20734;-77
2022/10/05 13:07:05;;;;;;;5.03;3.17;;;20.60;99.90;;;;;;4999081;28;20206;-77
2022/10/05 13:09:45;;;;;;;6.03;3.30;;;20.80;99.90;;;;;;5024445;28;20309;-76
2022/10/05 13:12:39;;;;;;;5.88;3.35;;;20.70;99.90;;;;;;5035017;28;20736;-76
2022/10/05 13:15:15;;;;;;;3.45;2.83;;;20.70;99.90;;;;;;5025284;28;20243;-80
2022/10/05 13:18:07;;;;;;;7.00;3.03;;;20.70;99.90;;;;;;5040543;28;20216;-78
2022/10/05 13:20:52;;;;;;;3.80;2.70;;;20.60;99.90;;;;;;5030899;28;20669;-76
2022/10/05 13:23:33;;;;;;;3.78;2.95;;;20.60;99.90;;;;;;5034421;28;20209;-75
2022/10/05 13:26:13;;;;;;;7.82;3.55;;;20.70;99.90;;;;;;5037259;28;20347;-75
2022/10/05 13:28:54;;;;;;;5.50;2.80;;;20.70;99.90;;;;;;5016997;28;20236;-75
2022/10/05 13:31:43;;;;;;;6.35;3.10;;;20.80;99.90;;;;;;5037627;28;20269;-75
2022/10/05 13:34:21;;;;;;;4.53;2.72;;;20.90;99.90;;;;;;5028749;28;20243;-76
2022/10/05 13:36:56;;;;;;;4.28;2.92;;;20.80;99.90;;;;;;5036040;28;20645;-77
2022/10/05 13:39:40;;;;;;;5.10;2.47;;;20.90;99.90;;;;;;5033847;28;20292;-78
2022/10/05 13:42:20;;;;;;;6.18;3.10;;;20.80;99.90;;;;;;5034732;28;20305;-75
2022/10/05 13:44:59;;;;;;;3.30;2.45;;;20.80;99.90;;;;;;5034914;28;20309;-75
2022/10/05 13:47:31;;;;;;;4.72;2.70;;;20.90;99.90;;;;;;5017871;28;20279;-75
2022/10/05 13:50:20;;;;;;;5.35;2.58;;;20.70;99.90;;;;;;5037306;28;20240;-76
2022/10/05 13:53:06;;;;;;;5.13;2.67;;;20.90;99.90;;;;;;5016616;28;20670;-77
2022/10/05 13:55:36;;;;;;;3.17;2.63;;;20.90;99.90;;;;;;5007261;28;20259;-77
2022/10/05 13:58:33;;;;;;;7.10;2.60;;;20.90;99.90;;;;;;5018925;28;20213;-76
2022/10/05 14:01:06;;;;;;;2.95;2.53;;;20.80;99.90;;;;;;5034180;28;20225;-78
2022/10/05 14:03:37;;;;;;;4.95;2.85;;;20.90;99.90;;;;;;5034520;28;20206;-78
2022/10/05 14:06:28;;;;;;;9.00;3.03;;;20.90;99.90;;;;;;5019211;28;20264;-77
2022/10/05 14:09:01;;;;;;;4.63;2.80;;;20.70;99.90;;;;;;5017197;28;20265;-75
2022/10/05 14:11:35;;;;;;;5.32;2.80;;;20.60;99.90;;;;;;5034526;28;20746;-76
2022/10/05 14:14:13;;;;;;;5.65;3.00;;;20.70;99.90;;;;;;5033602;28;20217;-77
2022/10/05 14:16:50;;;;;;;7.85;3.25;;;20.60;99.90;;;;;;5018694;28;20257;-75
2022/10/05 14:19:38;;;;;;;4.72;2.70;;;20.60;99.90;;;;;;5034928;28;20564;-76